EGHP weather

Popham Airfield
Basingstoke, England, United Kingdom

Public forecast

Using degrees Celsius for public forecast. Weather courtesy of forecast.io.

Closest aviation weather report (METAR) to Popham Airfield

Closest report is RAF Odiham, 11.2 nm (20.8 km) ENE. Retrieved 2019/10/18 10:20 UTC (38 minutes ago):

EGVO 181020Z 21016KT 9999 FEW022 13/10 Q1000 TEMPO 7000 SHRA SCT020 RMK BLU TEMPO WHT

Closest aviation forecast (TAF) to Popham Airfield

Closest forecast is RAF Odiham, 11.2 nm (20.8 km) ENE. Retrieved 2019/10/18 09:33 UTC (1 hour ago):

TAF TAF EGVO 180716Z 1809/1821 21015KT 9999 FEW020 PROB40 TEMPO 1811/1819 21018G28KT 7000 SHRA SCT020 PROB30 TEMPO 1811/1818 3000 +SHRA SCT012 BKN015CB